Time;durP1;ratioP1;P1;durP2;ratioP2;P2;SDS_P1;SDS_P2;PMS_P1;PMS_P2;Temp;Humidity;BMP_temperature;BMP_pressure;BME280_temperature;BME280_humidity;BME280_pressure;Samples;Min_cycle;Max_cycle;Signal;HPM_P1;HPM_P2
2022/11/10 00:03:09;;;;;;;30.13;20.35;;;13.70;99.90;;;;;;5011828;28;20500;-67
2022/11/10 00:06:32;;;;;;;27.77;19.80;;;13.60;99.90;;;;;;5011842;28;20037;-67
2022/11/10 00:09:55;;;;;;;30.08;19.80;;;13.60;99.90;;;;;;5012077;28;20099;-67
2022/11/10 00:13:18;;;;;;;28.45;21.25;;;13.50;99.90;;;;;;5020310;28;20060;-66
2022/11/10 00:20:22;;;;;;;31.98;22.33;;;13.40;99.90;;;;;;5012156;28;20049;-66
2022/11/10 00:23:48;;;;;;;28.63;21.05;;;13.50;99.90;;;;;;5011896;28;20053;-67
2022/11/10 00:27:10;;;;;;;32.30;22.23;;;13.50;99.90;;;;;;5011999;28;20041;-66
2022/11/10 00:30:36;;;;;;;29.15;21.08;;;13.40;99.90;;;;;;5012261;28;20041;-66
2022/11/10 00:33:59;;;;;;;28.45;21.70;;;13.30;99.90;;;;;;5011859;28;20052;-67
2022/11/10 00:37:22;;;;;;;27.17;19.88;;;13.40;99.90;;;;;;5012061;28;20053;-67
2022/11/10 00:40:46;;;;;;;27.63;20.83;;;13.40;99.90;;;;;;5012025;28;20044;-67
2022/11/10 00:44:08;;;;;;;29.75;21.63;;;13.50;99.90;;;;;;5011789;28;20041;-66
2022/11/10 00:47:30;;;;;;;30.02;19.33;;;13.60;99.90;;;;;;5011638;28;20045;-67
2022/11/10 00:50:53;;;;;;;34.78;22.02;;;13.60;99.90;;;;;;5011827;28;20053;-67
2022/11/10 00:54:16;;;;;;;30.60;20.88;;;13.60;99.90;;;;;;5011474;28;20393;-67
2022/11/10 00:57:39;;;;;;;26.63;19.98;;;13.60;99.90;;;;;;5011748;28;20500;-67
2022/11/10 01:01:03;;;;;;;31.88;21.88;;;13.60;99.90;;;;;;5011551;28;20061;-66
2022/11/10 01:04:26;;;;;;;31.15;20.88;;;13.60;99.90;;;;;;5011497;28;20045;-67
2022/11/10 01:07:49;;;;;;;29.95;21.02;;;13.60;99.90;;;;;;5011582;28;20057;-67
2022/11/10 01:11:12;;;;;;;;;;;13.60;99.90;;;;;;5011886;28;20045;-66
2022/11/10 01:14:35;;;;;;;29.80;20.05;;;13.60;99.90;;;;;;5011591;28;19924;-66
2022/11/10 01:17:58;;;;;;;29.35;21.52;;;13.60;99.90;;;;;;5015485;28;20049;-67
2022/11/10 01:21:21;;;;;;;33.03;22.25;;;13.60;99.90;;;;;;5015158;28;20105;-67
2022/11/10 01:24:44;;;;;;;32.20;20.38;;;13.50;99.90;;;;;;5015254;28;20057;-66
2022/11/10 01:28:06;;;;;;;;;;;13.50;99.90;;;;;;5015636;28;20037;-67
2022/11/10 01:31:28;;;;;;;23.27;17.38;;;13.60;99.90;;;;;;5015520;28;19916;-66
2022/11/10 01:34:51;;;;;;;30.58;20.50;;;13.60;99.90;;;;;;5015076;28;20056;-67
2022/11/10 01:38:13;;;;;;;27.05;18.58;;;13.60;99.90;;;;;;5015377;28;20045;-66
2022/11/10 01:41:37;;;;;;;23.60;18.67;;;13.60;99.90;;;;;;5015552;28;20504;-66
2022/11/10 01:45:21;;;;;;;31.20;20.70;;;13.60;99.90;;;;;;5015017;28;20503;-66
2022/11/10 01:48:59;;;;;;;30.00;21.65;;;13.50;99.90;;;;;;5015073;28;20045;-66
2022/11/10 01:52:22;;;;;;;30.17;20.67;;;13.40;99.90;;;;;;5014879;28;20049;-66
2022/11/10 01:55:46;;;;;;;30.60;20.02;;;13.30;99.90;;;;;;5014481;28;20066;-66
2022/11/10 01:59:14;;;;;;;28.70;18.63;;;13.40;99.90;;;;;;5014837;28;20509;-66
2022/11/10 02:03:01;;;;;;;27.52;19.83;;;13.30;99.90;;;;;;5014784;28;20045;-67
2022/11/10 02:06:27;;;;;;;27.63;19.42;;;13.30;99.90;;;;;;5014639;28;20046;-66
2022/11/10 02:09:52;;;;;;;32.80;20.80;;;13.20;99.90;;;;;;5014212;28;20061;-66
2022/11/10 02:13:14;;;;;;;31.17;21.65;;;13.20;99.90;;;;;;5014671;28;20512;-67
2022/11/10 02:16:38;;;;;;;31.33;20.98;;;13.10;99.90;;;;;;5014309;28;20049;-66
2022/11/10 02:20:04;;;;;;;29.02;20.80;;;13.00;99.90;;;;;;5014113;28;20176;-66
2022/11/10 02:23:30;;;;;;;29.65;20.58;;;12.80;99.90;;;;;;5013874;28;20420;-66
2022/11/10 02:26:54;;;;;;;28.00;20.15;;;12.80;99.90;;;;;;5014170;28;20431;-66
2022/11/10 02:30:18;;;;;;;31.92;22.20;;;12.70;99.90;;;;;;5014197;28;20045;-66
2022/11/10 02:33:40;;;;;;;33.35;21.50;;;12.70;99.90;;;;;;5014270;28;20053;-66
2022/11/10 02:37:03;;;;;;;32.08;20.38;;;12.70;99.90;;;;;;5014132;28;20056;-66
2022/11/10 02:40:26;;;;;;;27.98;19.75;;;12.70;99.90;;;;;;5013639;28;20044;-67
2022/11/10 02:43:50;;;;;;;26.65;21.02;;;12.70;99.90;;;;;;5013940;28;20037;-67
2022/11/10 02:47:12;;;;;;;29.33;20.83;;;12.70;99.90;;;;;;5014127;28;20065;-67
2022/11/10 02:50:35;;;;;;;;;;;12.70;99.90;;;;;;5014409;28;20437;-66
2022/11/10 02:53:57;;;;;;;;;;;12.80;99.90;;;;;;5014155;28;19932;-66
2022/11/10 02:57:20;;;;;;;31.13;20.50;;;12.80;99.90;;;;;;5013551;28;19948;-67
2022/11/10 03:00:43;;;;;;;30.23;21.30;;;12.90;99.90;;;;;;5013322;28;20397;-66
2022/11/10 03:04:05;;;;;;;24.38;19.52;;;12.90;99.90;;;;;;5012739;28;20061;-66
2022/11/10 03:07:28;;;;;;;24.88;19.08;;;12.90;99.90;;;;;;5013525;28;20045;-67
2022/11/10 03:10:55;;;;;;;24.65;17.25;;;12.90;99.90;;;;;;5013148;28;20037;-66
2022/11/10 03:14:18;;;;;;;29.40;17.92;;;13.00;99.90;;;;;;5013266;28;20507;-66
2022/11/10 03:17:41;;;;;;;24.60;16.88;;;13.10;99.90;;;;;;5013272;28;20045;-67
2022/11/10 03:21:04;;;;;;;25.88;16.27;;;13.10;99.90;;;;;;5013374;28;20045;-67
2022/11/10 03:24:27;;;;;;;23.27;17.08;;;13.20;99.90;;;;;;5013011;28;20045;-66
2022/11/10 03:27:49;;;;;;;;;;;13.30;99.90;;;;;;5013806;28;20041;-66
2022/11/10 03:31:12;;;;;;;24.48;17.10;;;13.40;99.90;;;;;;5013008;28;20383;-67
2022/11/10 03:34:34;;;;;;;23.05;17.10;;;13.40;99.90;;;;;;5012867;28;20393;-66
2022/11/10 03:37:56;;;;;;;25.42;17.50;;;13.40;99.90;;;;;;5013028;28;20045;-66
2022/11/10 03:41:19;;;;;;;;;;;13.50;99.90;;;;;;5013293;28;20127;-66
2022/11/10 03:44:41;;;;;;;22.30;16.08;;;13.50;99.90;;;;;;5012828;28;19932;-67
2022/11/10 03:48:03;;;;;;;22.75;16.80;;;13.50;99.90;;;;;;5012715;28;20045;-66
2022/11/10 03:51:26;;;;;;;24.33;15.85;;;13.60;99.90;;;;;;5012670;28;20037;-66
2022/11/10 03:54:49;;;;;;;25.25;16.08;;;13.60;99.90;;;;;;5012661;28;20053;-66
2022/11/10 03:58:11;;;;;;;22.33;15.63;;;13.60;99.90;;;;;;5012971;28;20036;-66
2022/11/10 04:01:35;;;;;;;20.70;14.60;;;13.60;99.90;;;;;;5012590;28;20346;-67
2022/11/10 04:16:01;;;;;;;18.95;14.05;;;13.70;99.90;;;;;;5012414;28;20057;-67
2022/11/10 04:19:24;;;;;;;22.73;15.02;;;13.70;99.90;;;;;;5012280;28;20386;-67
2022/11/10 04:26:28;;;;;;;23.13;15.07;;;13.70;99.90;;;;;;5012219;28;20044;-67
2022/11/10 04:29:51;;;;;;;23.08;13.95;;;13.70;99.90;;;;;;5012167;28;20041;-66
2022/11/10 04:33:13;;;;;;;;;;;13.60;99.90;;;;;;5012546;28;20069;-66
2022/11/10 04:36:39;;;;;;;21.73;14.57;;;13.60;99.90;;;;;;5012064;28;20273;-66
2022/11/10 04:40:02;;;;;;;24.08;14.82;;;13.60;99.90;;;;;;5011785;28;20100;-66
2022/11/10 04:43:24;;;;;;;23.02;15.10;;;13.60;99.90;;;;;;5011601;28;20045;-67
2022/11/10 04:46:48;;;;;;;21.60;14.35;;;13.60;99.90;;;;;;5012111;28;20037;-67
2022/11/10 04:50:11;;;;;;;21.70;14.80;;;13.50;99.90;;;;;;5011920;28;20037;-67
2022/11/10 04:53:33;;;;;;;23.23;15.90;;;13.50;99.90;;;;;;5012491;28;20049;-66
2022/11/10 04:56:56;;;;;;;25.73;16.00;;;13.40;99.90;;;;;;5011853;28;20045;-67
2022/11/10 05:00:18;;;;;;;;;;;13.30;99.90;;;;;;5012077;28;20053;-67
2022/11/10 05:03:42;;;;;;;24.05;16.65;;;13.20;99.90;;;;;;5011734;28;19921;-66
2022/11/10 05:07:04;;;;;;;28.02;17.77;;;13.10;99.90;;;;;;5011980;28;20041;-67
2022/11/10 05:10:26;;;;;;;29.13;20.35;;;13.00;99.90;;;;;;5011611;28;20069;-66
2022/11/10 05:13:50;;;;;;;27.42;19.48;;;12.80;99.90;;;;;;5011647;28;20048;-67
2022/11/10 05:17:13;;;;;;;29.98;20.13;;;12.70;99.90;;;;;;5011456;28;20076;-66
2022/11/10 05:20:35;;;;;;;26.85;16.77;;;12.60;99.90;;;;;;5011252;28;20045;-67
2022/11/10 05:23:58;;;;;;;31.23;19.52;;;12.60;99.90;;;;;;5011441;28;20496;-66
2022/11/10 05:27:21;;;;;;;34.28;24.95;;;12.60;99.90;;;;;;5011520;28;20041;-67
2022/11/10 05:30:44;;;;;;;40.00;26.08;;;12.50;99.90;;;;;;5011459;28;20397;-68
2022/11/10 05:34:07;;;;;;;42.08;30.35;;;12.50;99.90;;;;;;5011302;28;20041;-69
2022/11/10 05:37:30;;;;;;;40.92;30.30;;;12.30;99.90;;;;;;5011326;28;20049;-67
2022/11/10 05:40:52;;;;;;;49.75;31.98;;;12.20;99.90;;;;;;5011348;28;20049;-67
2022/11/10 05:44:15;;;;;;;49.35;31.95;;;12.20;99.90;;;;;;5011037;28;20512;-67
2022/11/10 05:47:39;;;;;;;43.63;30.27;;;12.20;99.90;;;;;;5011227;28;20037;-67
2022/11/10 05:51:01;;;;;;;47.47;29.52;;;12.20;99.90;;;;;;5011213;28;20045;-68
2022/11/10 05:54:24;;;;;;;43.78;29.48;;;12.20;99.90;;;;;;5010891;28;20045;-68
2022/11/10 05:57:50;;;;;;;42.10;29.27;;;12.20;99.90;;;;;;5011411;28;20053;-67
2022/11/10 06:01:12;;;;;;;45.03;29.33;;;12.20;99.90;;;;;;5010894;28;20512;-68
2022/11/10 06:04:35;;;;;;;43.70;30.60;;;12.10;99.90;;;;;;5013904;28;20044;-67
2022/11/10 06:07:58;;;;;;;41.95;29.13;;;12.20;99.90;;;;;;5014772;28;20041;-68
2022/11/10 06:11:21;;;;;;;39.78;28.58;;;12.10;99.90;;;;;;5003053;28;20072;-67
2022/11/10 06:14:43;;;;;;;47.10;30.10;;;12.10;99.90;;;;;;4994866;28;20053;-68
2022/11/10 06:18:07;;;;;;;42.35;29.13;;;12.10;99.90;;;;;;5008760;28;20045;-68
2022/11/10 06:21:30;;;;;;;42.13;28.55;;;12.10;99.90;;;;;;5014011;28;20037;-68
2022/11/10 06:24:53;;;;;;;39.38;27.42;;;12.20;99.90;;;;;;5013824;28;20040;-68
2022/11/10 06:28:16;;;;;;;42.33;28.50;;;12.20;99.90;;;;;;5014145;28;20061;-68
2022/11/10 06:31:39;;;;;;;39.00;27.23;;;12.20;99.90;;;;;;5014073;28;20042;-68
2022/11/10 06:35:02;;;;;;;36.08;27.77;;;12.20;99.90;;;;;;5013496;28;20397;-67
2022/11/10 06:38:25;;;;;;;40.70;28.52;;;12.20;99.90;;;;;;5014085;28;20045;-67
2022/11/10 06:41:48;;;;;;;35.28;25.23;;;12.20;99.90;;;;;;5013895;28;20065;-67
2022/11/10 06:45:11;;;;;;;30.55;22.13;;;12.20;99.90;;;;;;5002755;28;20037;-68
2022/11/10 06:48:34;;;;;;;30.88;23.20;;;12.30;99.90;;;;;;4994157;28;20049;-68
2022/11/10 06:51:56;;;;;;;;;;;12.40;99.90;;;;;;4994610;28;20049;-68
2022/11/10 06:55:18;;;;;;;33.95;23.98;;;12.60;99.90;;;;;;4993632;28;20376;-68
2022/11/10 06:58:41;;;;;;;33.58;22.83;;;12.60;99.90;;;;;;4993938;28;20382;-68
2022/11/10 07:02:04;;;;;;;28.10;21.55;;;12.80;99.90;;;;;;5006185;28;20048;-68
2022/11/10 07:05:26;;;;;;;;;;;12.90;99.90;;;;;;5013611;28;20040;-68
2022/11/10 07:08:49;;;;;;;26.88;17.58;;;13.00;99.90;;;;;;5012231;28;19917;-68
2022/11/10 07:12:12;;;;;;;23.38;16.48;;;13.10;99.90;;;;;;5007765;28;20490;-69
2022/11/10 07:15:35;;;;;;;21.40;15.35;;;13.30;99.90;;;;;;5011539;28;20057;-68
2022/11/10 07:18:58;;;;;;;19.90;14.73;;;13.90;99.90;;;;;;5010715;28;20504;-68
2022/11/10 07:22:21;;;;;;;16.92;11.63;;;14.60;99.90;;;;;;5004345;28;20114;-69
2022/11/10 07:25:43;;;;;;;18.67;13.05;;;15.20;99.90;;;;;;5009292;28;20041;-68
2022/11/10 07:29:06;;;;;;;18.75;11.32;;;15.70;99.90;;;;;;5014545;28;20502;-69
2022/11/10 07:32:28;;;;;;;16.48;10.45;;;15.90;99.90;;;;;;4993333;28;20041;-68
2022/11/10 07:35:56;;;;;;;15.88;9.60;;;16.00;99.90;;;;;;5012585;28;20532;-68
2022/11/10 07:39:19;;;;;;;16.85;10.27;;;16.10;99.90;;;;;;5002773;28;20053;-68
2022/11/10 07:42:41;;;;;;;15.02;10.20;;;15.90;99.90;;;;;;5010553;28;20052;-68
2022/11/10 07:46:04;;;;;;;15.73;11.43;;;15.70;99.90;;;;;;5012296;28;20381;-68
2022/11/10 07:49:27;;;;;;;15.63;10.73;;;15.50;99.90;;;;;;5012364;28;20045;-68
2022/11/10 07:52:50;;;;;;;17.77;12.63;;;15.30;99.90;;;;;;5018446;28;20376;-68
2022/11/10 07:56:13;;;;;;;15.93;11.52;;;15.10;99.90;;;;;;5012159;28;20052;-68
2022/11/10 07:59:36;;;;;;;14.82;11.32;;;14.90;99.90;;;;;;5004282;28;20048;-68
2022/11/10 08:03:07;;;;;;;14.63;11.32;;;14.90;99.90;;;;;;5010653;28;20053;-68
2022/11/10 08:06:30;;;;;;;21.13;12.10;;;15.00;99.90;;;;;;4996866;28;20041;-68
2022/11/10 08:09:53;;;;;;;17.38;11.25;;;15.00;99.90;;;;;;5008491;28;20504;-68
2022/11/10 08:13:16;;;;;;;16.20;10.95;;;14.90;99.90;;;;;;5008835;28;20037;-67
2022/11/10 08:16:39;;;;;;;14.98;10.98;;;14.90;99.90;;;;;;5010487;28;20037;-68
2022/11/10 08:20:03;;;;;;;14.45;11.05;;;15.00;99.90;;;;;;5010953;28;20058;-68
2022/11/10 08:23:27;;;;;;;13.75;10.82;;;15.00;99.90;;;;;;5007944;28;20516;-68
2022/11/10 08:26:51;;;;;;;14.65;10.55;;;15.00;99.90;;;;;;5011158;28;20041;-68
2022/11/10 08:30:13;;;;;;;14.60;10.75;;;15.00;99.90;;;;;;5009709;28;20088;-68
2022/11/10 08:33:36;;;;;;;19.83;12.45;;;15.00;99.90;;;;;;5007972;28;20053;-68
2022/11/10 08:36:59;;;;;;;12.35;9.98;;;15.00;99.90;;;;;;4994349;28;20062;-68
2022/11/10 08:40:23;;;;;;;15.23;10.18;;;15.10;99.90;;;;;;5008941;28;20041;-68
2022/11/10 08:43:46;;;;;;;14.95;10.45;;;15.30;99.90;;;;;;5002656;28;20036;-68
2022/11/10 08:47:10;;;;;;;22.02;11.23;;;15.50;99.90;;;;;;5004776;28;20504;-68
2022/11/10 08:50:33;;;;;;;13.52;10.23;;;15.90;99.90;;;;;;5010634;28;20045;-68
2022/11/10 08:53:55;;;;;;;18.25;10.05;;;16.30;99.90;;;;;;5011234;28;20053;-68
2022/11/10 08:57:18;;;;;;;21.02;9.82;;;16.40;99.90;;;;;;5010406;28;20080;-68
2022/11/10 09:00:42;;;;;;;16.20;10.38;;;16.60;99.90;;;;;;5002737;28;20049;-69
2022/11/10 09:04:04;;;;;;;20.15;11.30;;;16.40;99.90;;;;;;5010024;28;20496;-68
2022/11/10 09:07:26;;;;;;;17.00;12.18;;;16.10;99.90;;;;;;5001290;28;20041;-68
2022/11/10 09:10:50;;;;;;;15.65;11.38;;;16.00;99.90;;;;;;5006509;28;20056;-68
2022/11/10 09:14:12;;;;;;;14.02;8.93;;;16.10;99.90;;;;;;5001847;28;20049;-69
2022/11/10 09:17:37;;;;;;;14.65;10.15;;;16.20;99.90;;;;;;5010040;28;20065;-68
2022/11/10 09:21:03;;;;;;;19.80;12.43;;;16.40;99.90;;;;;;5003635;28;20409;-68
2022/11/10 09:24:25;;;;;;;18.13;12.45;;;16.70;99.90;;;;;;5007794;28;20037;-69
2022/11/10 09:27:48;;;;;;;17.60;12.77;;;17.00;99.90;;;;;;5007581;28;20033;-69
2022/11/10 09:31:10;;;;;;;23.88;14.18;;;17.00;99.90;;;;;;5000559;28;20056;-68
2022/11/10 09:34:32;;;;;;;;;;;17.00;99.90;;;;;;5007505;28;20084;-69
2022/11/10 09:37:55;;;;;;;10.38;8.10;;;17.00;99.90;;;;;;5009970;28;19925;-68
2022/11/10 09:41:18;;;;;;;12.45;8.65;;;16.90;99.90;;;;;;5012929;28;20037;-68
2022/11/10 09:44:51;;;;;;;14.57;9.98;;;17.00;99.90;;;;;;5010883;28;20048;-68
2022/11/10 09:48:24;;;;;;;18.08;9.77;;;17.00;99.90;;;;;;5009089;28;20129;-68
2022/11/10 09:51:47;;;;;;;11.30;8.82;;;16.80;99.90;;;;;;5007770;28;20136;-68
2022/11/10 09:55:35;;;;;;;14.70;9.63;;;16.70;99.90;;;;;;5013512;28;20049;-68
2022/11/10 09:58:57;;;;;;;16.75;9.57;;;16.50;99.90;;;;;;5013742;28;20069;-68
2022/11/10 10:02:44;;;;;;;15.85;10.43;;;16.30;99.90;;;;;;5013919;28;20049;-68
2022/11/10 10:06:11;;;;;;;14.13;11.07;;;16.20;99.90;;;;;;5004321;28;20061;-68
2022/11/10 10:09:38;;;;;;;13.25;9.52;;;16.10;99.90;;;;;;5002567;28;20049;-67
2022/11/10 10:13:26;;;;;;;15.80;10.60;;;15.90;99.90;;;;;;5014085;28;20041;-67
2022/11/10 10:17:19;;;;;;;19.73;10.75;;;15.90;99.90;;;;;;5012661;28;20041;-68
2022/11/10 10:21:09;;;;;;;15.88;10.45;;;15.80;99.90;;;;;;5013834;28;20508;-67
2022/11/10 10:24:33;;;;;;;15.57;11.55;;;15.90;99.90;;;;;;5012451;28;20048;-67
2022/11/10 10:28:03;;;;;;;24.48;16.15;;;16.00;99.90;;;;;;5005906;28;20148;-68
2022/11/10 10:31:34;;;;;;;24.15;14.98;;;16.20;99.90;;;;;;5008066;28;20056;-67
2022/11/10 10:34:57;;;;;;;18.73;12.65;;;16.40;99.90;;;;;;5010165;28;20037;-68
2022/11/10 10:38:31;;;;;;;18.15;13.13;;;16.50;99.90;;;;;;5012494;28;20052;-67
2022/11/10 10:41:54;;;;;;;15.23;10.75;;;16.60;99.90;;;;;;5006010;28;20508;-68
2022/11/10 10:45:20;;;;;;;16.92;10.02;;;16.80;99.90;;;;;;5004697;28;20515;-68
2022/11/10 10:48:43;;;;;;;14.02;9.52;;;16.80;99.90;;;;;;5011861;28;20037;-67
2022/11/10 10:52:10;;;;;;;11.82;8.95;;;16.90;99.90;;;;;;5011266;28;20057;-67
2022/11/10 10:55:34;;;;;;;10.90;7.93;;;17.10;99.90;;;;;;5006625;28;20044;-67
2022/11/10 10:59:03;;;;;;;10.23;7.25;;;17.50;99.90;;;;;;5012687;28;20057;-68
2022/11/10 11:02:29;;;;;;;10.82;7.70;;;18.00;99.90;;;;;;5012081;28;20045;-68
2022/11/10 11:06:19;;;;;;;11.70;8.00;;;17.70;99.90;;;;;;5010366;28;20053;-68
2022/11/10 11:09:42;;;;;;;12.45;8.18;;;17.60;99.90;;;;;;5008968;28;20045;-68
2022/11/10 11:13:31;;;;;;;12.35;7.95;;;17.70;99.90;;;;;;5011392;28;20037;-68
2022/11/10 11:16:59;;;;;;;15.45;8.27;;;18.00;99.90;;;;;;5013377;28;20036;-68
2022/11/10 11:20:42;;;;;;;13.65;8.75;;;18.10;99.90;;;;;;5018399;28;20476;-68
2022/11/10 11:24:23;;;;;;;17.92;13.20;;;18.00;99.90;;;;;;5014544;28;20045;-69
2022/11/10 11:28:11;;;;;;;22.50;16.02;;;17.90;99.90;;;;;;5022446;28;20684;-69
2022/11/10 11:32:09;;;;;;;12.43;9.90;;;18.00;99.90;;;;;;5021044;28;20065;-68
2022/11/10 11:35:39;;;;;;;15.48;8.82;;;18.20;99.90;;;;;;5008566;28;20041;-68
2022/11/10 11:39:20;;;;;;;10.48;7.55;;;18.60;99.90;;;;;;5018618;28;20061;-67
2022/11/10 11:42:52;;;;;;;9.27;6.73;;;19.10;99.90;;;;;;5007375;28;20052;-68
2022/11/10 11:46:21;;;;;;;9.40;5.63;;;19.50;99.90;;;;;;5022116;28;20488;-68
2022/11/10 11:49:59;;;;;;;9.02;5.72;;;19.70;99.90;;;;;;5006956;28;20045;-68
2022/11/10 11:53:27;;;;;;;10.68;6.82;;;20.10;99.90;;;;;;5010901;28;20040;-68
2022/11/10 11:56:51;;;;;;;7.35;5.13;;;20.60;99.90;;;;;;5020898;28;20044;-68
2022/11/10 12:00:15;;;;;;;9.32;5.32;;;21.20;99.90;;;;;;5010460;28;20045;-68
2022/11/10 12:04:21;;;;;;;12.23;7.75;;;21.60;99.90;;;;;;5008656;28;20045;-67
2022/11/10 12:08:15;;;;;;;11.00;7.07;;;21.90;99.90;;;;;;5009265;28;20045;-68
2022/11/10 12:12:08;;;;;;;11.30;5.65;;;21.80;99.90;;;;;;5003577;28;20045;-68
2022/11/10 12:16:14;;;;;;;6.93;4.97;;;21.60;99.90;;;;;;5017974;28;20463;-68
2022/11/10 12:20:10;;;;;;;9.20;6.07;;;21.20;99.90;;;;;;5013727;28;20500;-67
2022/11/10 12:24:10;;;;;;;8.98;5.25;;;20.60;99.90;;;;;;5005934;28;20426;-67
2022/11/10 12:27:38;;;;;;;11.90;5.75;;;20.10;99.90;;;;;;5010692;28;20398;-67
2022/11/10 12:31:04;;;;;;;9.55;6.35;;;19.60;99.90;;;;;;5010030;28;20061;-67
2022/11/10 12:34:36;;;;;;;12.27;6.60;;;19.10;99.90;;;;;;5007867;28;20052;-68
2022/11/10 12:38:15;;;;;;;18.08;11.43;;;18.70;99.90;;;;;;5008559;28;20052;-67
2022/11/10 12:42:06;;;;;;;8.60;6.47;;;18.50;99.90;;;;;;5017615;28;20046;-68
2022/11/10 12:45:38;;;;;;;11.38;6.57;;;18.50;99.90;;;;;;5014921;28;21679;-67
2022/11/10 12:49:18;;;;;;;13.68;6.13;;;18.50;99.90;;;;;;5009831;28;20037;-67
2022/11/10 12:52:48;;;;;;;13.98;9.18;;;18.50;99.90;;;;;;5010796;28;20053;-68
2022/11/10 12:56:23;;;;;;;8.40;6.43;;;18.50;99.90;;;;;;5019343;28;20328;-68
2022/11/10 13:00:03;;;;;;;9.25;5.85;;;18.60;99.90;;;;;;5019843;28;20384;-67
2022/11/10 13:03:32;;;;;;;9.27;6.18;;;18.50;99.90;;;;;;5010266;28;20056;-67
2022/11/10 13:07:04;;;;;;;12.38;5.30;;;18.60;99.90;;;;;;5005377;28;20057;-67
2022/11/10 13:10:27;;;;;;;9.38;5.88;;;18.50;99.90;;;;;;5013410;28;20396;-67
2022/11/10 13:13:56;;;;;;;9.65;7.25;;;18.40;99.90;;;;;;5009412;28;20040;-67
2022/11/10 13:17:25;;;;;;;9.07;5.88;;;18.60;99.90;;;;;;5015738;28;20041;-67
2022/11/10 13:20:55;;;;;;;7.22;5.53;;;18.60;99.90;;;;;;5014097;28;20057;-68
2022/11/10 13:24:29;;;;;;;11.02;5.95;;;18.70;99.90;;;;;;5016971;28;20492;-67
2022/11/10 13:27:52;;;;;;;11.07;6.05;;;18.60;99.90;;;;;;5016958;28;20060;-67
2022/11/10 13:31:27;;;;;;;7.50;5.50;;;18.10;99.90;;;;;;5004233;28;20041;-67
2022/11/10 13:34:50;;;;;;;8.52;5.90;;;17.90;99.90;;;;;;5009371;28;20048;-67
2022/11/10 13:38:31;;;;;;;14.68;5.55;;;18.00;99.90;;;;;;5022213;28;20053;-67
2022/11/10 13:42:18;;;;;;;11.52;5.70;;;18.10;99.90;;;;;;5009683;28;20037;-67
2022/11/10 13:45:45;;;;;;;8.88;5.85;;;18.10;99.90;;;;;;5018403;28;20041;-67
2022/11/10 13:49:14;;;;;;;8.07;5.47;;;18.20;99.90;;;;;;5009431;28;20041;-67
2022/11/10 13:53:18;;;;;;;10.55;5.43;;;18.10;99.90;;;;;;5015931;28;20060;-67
2022/11/10 13:57:06;;;;;;;7.05;5.07;;;18.30;99.90;;;;;;5005579;28;20056;-67
2022/11/10 14:00:31;;;;;;;6.97;4.63;;;18.70;99.90;;;;;;5011303;28;20053;-67
2022/11/10 14:04:00;;;;;;;11.82;7.47;;;19.00;99.90;;;;;;5010488;28;20040;-67
2022/11/10 14:07:26;;;;;;;9.13;5.20;;;19.30;99.90;;;;;;5001784;28;20045;-67
2022/11/10 14:11:05;;;;;;;8.48;5.05;;;19.60;99.90;;;;;;5018743;28;20041;-67
2022/11/10 14:14:53;;;;;;;11.55;5.53;;;19.80;99.90;;;;;;5016875;28;20523;-67
2022/11/10 14:18:23;;;;;;;10.13;4.93;;;20.00;99.90;;;;;;5013157;28;20405;-68
2022/11/10 14:22:01;;;;;;;6.43;4.50;;;20.90;99.90;;;;;;5010277;28;20041;-67
2022/11/10 14:25:38;;;;;;;6.45;4.63;;;21.40;99.90;;;;;;5009785;28;20041;-67
2022/11/10 14:29:30;;;;;;;10.23;4.80;;;21.60;99.90;;;;;;5021938;28;20049;-68
2022/11/10 14:33:05;;;;;;;7.00;5.10;;;21.80;99.90;;;;;;5013547;28;20503;-67
2022/11/10 14:36:27;;;;;;;10.10;5.47;;;22.30;99.90;;;;;;5024391;28;20052;-68
2022/11/10 14:39:59;;;;;;;7.68;4.75;;;23.00;99.90;;;;;;5016793;28;20385;-67
2022/11/10 14:43:24;;;;;;;10.43;5.40;;;23.70;99.90;;;;;;5010555;28;20060;-67
2022/11/10 14:46:47;;;;;;;4.97;3.80;;;24.20;99.90;;;;;;5016903;28;20079;-67
2022/11/10 14:50:13;;;;;;;12.90;7.85;;;24.50;99.90;;;;;;5015299;28;20052;-68
2022/11/10 14:53:38;;;;;;;6.90;3.85;;;25.00;99.90;;;;;;5008061;28;20040;-67
2022/11/10 14:57:01;;;;;;;10.13;4.72;;;24.90;99.90;;;;;;5006585;28;20038;-67
2022/11/10 15:00:26;;;;;;;12.10;6.90;;;24.60;99.90;;;;;;5014324;28;20049;-67
2022/11/10 15:03:49;;;;;;;8.88;5.70;;;24.30;99.90;;;;;;5028269;28;20278;-67
2022/11/10 15:07:12;;;;;;;6.20;4.20;;;24.30;99.90;;;;;;5011892;28;20041;-67
2022/11/10 15:10:40;;;;;;;5.90;4.15;;;24.10;99.90;;;;;;5014675;28;20392;-67
2022/11/10 15:14:03;;;;;;;9.57;4.65;;;23.80;99.90;;;;;;5015262;28;20048;-67
2022/11/10 15:17:46;;;;;;;10.98;7.00;;;23.30;99.90;;;;;;5018828;28;20400;-67
2022/11/10 15:21:11;;;;;;;18.38;10.40;;;22.70;99.90;;;;;;5019954;28;20044;-67
2022/11/10 15:24:34;;;;;;;22.65;16.45;;;21.80;99.90;;;;;;5021170;28;20401;-67
2022/11/10 15:28:01;;;;;;;17.27;12.40;;;20.90;99.90;;;;;;5007904;28;21626;-67
2022/11/10 15:31:30;;;;;;;19.52;12.60;;;20.10;99.90;;;;;;5012262;28;20045;-66
2022/11/10 15:35:08;;;;;;;17.15;10.68;;;19.40;99.90;;;;;;4999877;28;20040;-67
2022/11/10 15:38:31;;;;;;;27.25;15.13;;;18.80;99.90;;;;;;5020194;28;20048;-67
2022/11/10 15:41:57;;;;;;;25.88;17.00;;;18.40;99.90;;;;;;5024320;28;20430;-67
2022/11/10 15:45:20;;;;;;;30.80;20.48;;;18.10;99.90;;;;;;5007676;28;20029;-67
2022/11/10 15:48:49;;;;;;;36.78;23.30;;;17.70;99.90;;;;;;5023513;28;20116;-66
2022/11/10 15:52:19;;;;;;;33.05;19.85;;;17.30;99.90;;;;;;4996439;28;20057;-66
2022/11/10 15:55:43;;;;;;;97.15;59.60;;;17.00;99.90;;;;;;5009667;28;20056;-66
2022/11/10 15:59:08;;;;;;;31.23;18.77;;;16.60;99.90;;;;;;5029460;28;20064;-66
2022/11/10 16:02:31;;;;;;;27.58;17.48;;;16.30;99.90;;;;;;5026117;28;20036;-66
2022/11/10 16:05:54;;;;;;;27.77;17.00;;;16.00;99.90;;;;;;4992536;28;20073;-66
2022/11/10 16:09:17;;;;;;;32.78;23.10;;;15.80;99.90;;;;;;4993083;28;20042;-67
2022/11/10 16:12:40;;;;;;;36.08;25.27;;;15.60;99.90;;;;;;5000089;28;20493;-67
2022/11/10 16:16:03;;;;;;;29.40;21.17;;;15.40;99.90;;;;;;5006860;28;20045;-65
2022/11/10 16:19:25;;;;;;;31.38;20.92;;;15.30;99.90;;;;;;5017966;28;20392;-67
2022/11/10 16:22:48;;;;;;;35.08;21.17;;;15.20;99.90;;;;;;5008945;28;20519;-67
2022/11/10 16:26:15;;;;;;;26.58;16.05;;;15.10;99.90;;;;;;5000748;28;20500;-67
2022/11/10 16:29:38;;;;;;;59.33;33.55;;;15.00;99.90;;;;;;5008996;28;20092;-68
2022/11/10 16:33:00;;;;;;;61.53;33.35;;;14.80;99.90;;;;;;5019271;28;20065;-67
2022/11/10 16:36:27;;;;;;;35.22;20.33;;;14.80;99.90;;;;;;5010529;28;20693;-67
2022/11/10 16:39:49;;;;;;;47.30;25.17;;;14.70;99.90;;;;;;5031490;28;20049;-67
2022/11/10 16:43:16;;;;;;;46.55;28.15;;;14.70;99.90;;;;;;5031333;28;20492;-66
2022/11/10 16:46:42;;;;;;;36.85;21.63;;;14.70;99.90;;;;;;5031074;28;20517;-67
2022/11/10 16:50:09;;;;;;;36.83;21.42;;;14.70;99.90;;;;;;5010133;28;20037;-67
2022/11/10 16:53:32;;;;;;;135.20;84.65;;;14.70;99.90;;;;;;5011397;28;20925;-67
2022/11/10 16:56:55;;;;;;;48.38;32.33;;;14.70;99.90;;;;;;5011818;28;20044;-67
2022/11/10 17:00:19;;;;;;;36.17;23.80;;;14.70;99.90;;;;;;5010285;28;20405;-67
2022/11/10 17:03:54;;;;;;;33.42;22.60;;;14.70;99.90;;;;;;5012078;28;20057;-67
2022/11/10 17:07:23;;;;;;;23.45;15.88;;;14.60;99.90;;;;;;5005350;28;20037;-67
2022/11/10 17:10:45;;;;;;;22.70;14.32;;;14.50;99.90;;;;;;5008993;28;20040;-67
2022/11/10 17:14:10;;;;;;;19.70;13.35;;;14.50;99.90;;;;;;5010945;28;20066;-67
2022/11/10 17:17:35;;;;;;;19.33;12.52;;;14.40;99.90;;;;;;5010833;28;20058;-68
2022/11/10 17:20:57;;;;;;;18.88;13.05;;;14.30;99.90;;;;;;5011959;28;20041;-67
2022/11/10 17:24:20;;;;;;;18.83;12.88;;;14.20;99.90;;;;;;5011615;28;20056;-67
2022/11/10 17:27:43;;;;;;;22.90;13.90;;;14.10;99.90;;;;;;5011670;28;20053;-67
2022/11/10 17:31:06;;;;;;;22.70;15.20;;;14.00;99.90;;;;;;5011319;28;20053;-67
2022/11/10 17:34:28;;;;;;;21.48;16.13;;;14.00;99.90;;;;;;5011254;28;20508;-67
2022/11/10 17:37:55;;;;;;;39.10;26.33;;;13.90;99.90;;;;;;5011619;28;20049;-67
2022/11/10 17:41:19;;;;;;;49.75;34.35;;;13.90;99.90;;;;;;5011350;28;20041;-67
2022/11/10 17:44:41;;;;;;;37.00;25.23;;;13.80;99.90;;;;;;5011275;28;20057;-67
2022/11/10 17:48:05;;;;;;;40.75;27.00;;;13.80;99.90;;;;;;5011579;28;20053;-67
2022/11/10 17:51:30;;;;;;;36.92;27.20;;;13.80;99.90;;;;;;5011447;28;20069;-67
2022/11/10 17:54:53;;;;;;;30.35;21.13;;;13.70;99.90;;;;;;5011486;28;20037;-67
2022/11/10 17:58:17;;;;;;;22.67;17.15;;;13.70;99.90;;;;;;5012373;28;20052;-67